createdAt,value
2018-09-18T00:00:28.129Z,4.47
2018-09-18T00:01:03.335Z,6.83
2018-09-18T00:01:38.540Z,4.60
2018-09-18T00:02:14.400Z,3.77
2018-09-18T00:02:49.861Z,5.65
2018-09-18T00:03:25.168Z,4.22
2018-09-18T00:04:00.399Z,4.80
2018-09-18T00:04:36.050Z,5.30
2018-09-18T00:05:11.267Z,4.30
2018-09-18T00:05:47.225Z,5.37
2018-09-18T00:06:22.568Z,4.25
2018-09-18T00:06:57.788Z,5.05
2018-09-18T00:07:32.995Z,4.03
2018-09-18T00:08:08.146Z,6.22
2018-09-18T00:08:44.036Z,4.05
2018-09-18T00:09:19.378Z,4.42
2018-09-18T00:09:54.600Z,4.40
2018-09-18T00:10:29.800Z,4.12
2018-09-18T00:11:05.114Z,4.10
2018-09-18T00:11:40.282Z,3.92
2018-09-18T00:12:15.918Z,7.05
2018-09-18T00:12:51.476Z,5.45
2018-09-18T00:13:26.650Z,4.00
2018-09-18T00:14:02.023Z,4.58
2018-09-18T00:14:37.243Z,6.58
2018-09-18T00:15:12.532Z,4.80
2018-09-18T00:15:48.184Z,6.05
2018-09-18T00:16:23.496Z,4.22
2018-09-18T00:16:58.726Z,5.33
2018-09-18T00:17:33.935Z,4.75
2018-09-18T00:18:09.106Z,4.30
2018-09-18T00:18:44.921Z,6.40
2018-09-18T00:19:20.263Z,6.08
2018-09-18T00:19:55.763Z,4.12
2018-09-18T00:20:30.926Z,5.90
2018-09-18T00:21:06.227Z,5.70
2018-09-18T00:21:41.440Z,4.28
2018-09-18T00:22:17.261Z,4.45
2018-09-18T00:22:52.586Z,6.08
2018-09-18T00:23:27.992Z,4.12
2018-09-18T00:24:03.547Z,4.70
2018-09-18T00:24:38.808Z,4.65
2018-09-18T00:25:14.449Z,4.85
2018-09-18T00:25:49.825Z,4.45
2018-09-18T00:26:24.997Z,4.45
2018-09-18T00:27:00.162Z,6.33
2018-09-18T00:27:35.338Z,6.03
2018-09-18T00:28:10.514Z,5.65
2018-09-18T00:28:46.123Z,7.50
2018-09-18T00:29:21.464Z,5.28
2018-09-18T00:29:56.684Z,4.30
2018-09-18T00:30:31.898Z,4.40
2018-09-18T00:31:07.758Z,5.40
2018-09-18T00:31:43.029Z,5.85
2018-09-18T00:32:18.124Z,4.80
2018-09-18T00:32:53.522Z,9.23
2018-09-18T00:33:28.693Z,4.10
2018-09-18T00:34:03.866Z,5.12
2018-09-18T00:34:39.055Z,3.87
2018-09-18T00:35:14.465Z,4.03
2018-09-18T00:35:49.771Z,5.22
2018-09-18T00:36:25.395Z,3.87
2018-09-18T00:37:00.560Z,4.37
2018-09-18T00:37:35.731Z,6.33
2018-09-18T00:38:10.956Z,4.40
2018-09-18T00:38:46.804Z,5.35
2018-09-18T00:39:22.230Z,6.05
2018-09-18T00:39:57.402Z,5.67
2018-09-18T00:40:32.572Z,4.33
2018-09-18T00:41:08.115Z,4.92
2018-09-18T00:41:43.543Z,6.92
2018-09-18T00:42:18.434Z,6.03
2018-09-18T00:42:53.658Z,6.22
2018-09-18T00:43:28.853Z,5.65
2018-09-18T00:44:04.046Z,5.62
2018-09-18T00:44:39.226Z,6.35
2018-09-18T00:45:14.568Z,4.30
2018-09-18T00:45:50.056Z,4.72
2018-09-18T00:46:25.417Z,5.15
2018-09-18T00:47:00.570Z,7.95
2018-09-18T00:47:35.794Z,4.17
2018-09-18T00:48:11.009Z,3.87
2018-09-18T00:48:46.944Z,5.72
2018-09-18T00:49:22.524Z,4.05
2018-09-18T00:49:57.719Z,5.17
2018-09-18T00:50:32.888Z,7.78
2018-09-18T00:51:08.126Z,5.55
2018-09-18T00:51:43.318Z,4.85
2018-09-18T00:52:18.523Z,5.42
2018-09-18T00:52:53.719Z,5.50
2018-09-18T00:53:28.918Z,5.08
2018-09-18T00:54:04.101Z,4.78
2018-09-18T00:54:39.267Z,4.65
2018-09-18T00:55:14.697Z,4.60
2018-09-18T00:55:50.015Z,4.78
2018-09-18T00:56:25.622Z,4.20
2018-09-18T00:57:01.008Z,5.03
2018-09-18T00:57:36.285Z,5.62
2018-09-18T00:58:11.499Z,5.92
2018-09-18T00:58:47.406Z,5.08
2018-09-18T00:59:22.704Z,6.12
2018-09-18T00:59:57.888Z,5.58
2018-09-18T01:00:33.311Z,4.45
2018-09-18T01:01:08.475Z,4.30
2018-09-18T01:01:43.707Z,3.83
2018-09-18T01:02:19.544Z,5.30
2018-09-18T01:02:55.098Z,4.40
2018-09-18T01:03:30.274Z,4.22
2018-09-18T01:04:05.494Z,6.08
2018-09-18T01:04:40.744Z,3.95
2018-09-18T01:05:16.412Z,5.85
2018-09-18T01:05:51.729Z,4.50
2018-09-18T01:06:27.427Z,5.08
2018-09-18T01:07:02.976Z,3.95
2018-09-18T01:07:38.234Z,7.78
2018-09-18T01:08:13.839Z,6.25
2018-09-18T01:08:49.260Z,4.58
2018-09-18T01:09:24.722Z,4.25
2018-09-18T01:09:59.956Z,5.33
2018-09-18T01:10:35.851Z,4.40
2018-09-18T01:11:11.017Z,4.40
2018-09-18T01:11:46.489Z,8.20
2018-09-18T01:12:21.749Z,4.75
2018-09-18T01:12:57.002Z,4.20
2018-09-18T01:13:32.198Z,4.40
2018-09-18T01:14:07.558Z,4.47
2018-09-18T01:14:42.894Z,4.10
2018-09-18T01:15:18.580Z,5.10
2018-09-18T01:15:53.955Z,4.55
2018-09-18T01:16:29.115Z,4.05
2018-09-18T01:17:04.346Z,5.12
2018-09-18T01:17:39.530Z,5.22
2018-09-18T01:18:15.050Z,4.05
2018-09-18T01:18:50.530Z,4.15
2018-09-18T01:19:25.780Z,4.22
2018-09-18T01:20:01.040Z,3.95
2018-09-18T01:20:36.263Z,5.95
2018-09-18T01:21:12.494Z,4.17
2018-09-18T01:21:48.263Z,5.50
2018-09-18T01:22:23.509Z,5.60
2018-09-18T01:22:58.711Z,4.55
2018-09-18T01:23:33.933Z,4.58
2018-09-18T01:24:09.123Z,4.53
2018-09-18T01:24:44.387Z,4.75
2018-09-18T01:25:19.941Z,3.87
2018-09-18T01:25:55.218Z,4.50
2018-09-18T01:26:30.411Z,4.35
2018-09-18T01:27:05.597Z,6.42
2018-09-18T01:27:40.909Z,4.22
2018-09-18T01:28:16.506Z,5.40
2018-09-18T01:28:52.147Z,4.70
2018-09-18T01:29:27.401Z,4.10
2018-09-18T01:30:02.650Z,4.33
2018-09-18T01:30:37.819Z,7.67
2018-09-18T01:31:13.819Z,4.30
2018-09-18T01:31:49.398Z,5.90
2018-09-18T01:32:24.679Z,4.72
2018-09-18T01:32:59.870Z,5.25
2018-09-18T01:33:35.503Z,4.35
2018-09-18T01:34:10.801Z,3.87
2018-09-18T01:34:46.321Z,4.80
2018-09-18T01:35:21.859Z,3.47
2018-09-18T01:35:57.045Z,4.22
2018-09-18T01:36:32.247Z,4.58
2018-09-18T01:37:07.488Z,5.37
2018-09-18T01:37:42.706Z,4.40
2018-09-18T01:38:17.982Z,4.00
2018-09-18T01:38:53.580Z,5.47
2018-09-18T01:39:28.266Z,4.20
2018-09-18T01:40:03.477Z,3.98
2018-09-18T01:40:38.665Z,6.45
2018-09-18T01:41:13.953Z,3.58
2018-09-18T01:41:49.306Z,6.58
2018-09-18T01:42:24.587Z,5.97
2018-09-18T01:42:59.790Z,5.20
2018-09-18T01:43:35.104Z,3.72
2018-09-18T01:44:10.533Z,6.60
2018-09-18T01:44:45.880Z,3.83
2018-09-18T01:45:21.169Z,4.20
2018-09-18T01:45:56.389Z,5.85
2018-09-18T01:46:31.565Z,5.70
2018-09-18T01:47:06.746Z,4.03
2018-09-18T01:47:42.114Z,4.03
2018-09-18T01:48:17.439Z,4.65
2018-09-18T01:48:52.774Z,3.85
2018-09-18T01:49:27.954Z,4.45
2018-09-18T01:50:03.133Z,3.72
2018-09-18T01:50:38.426Z,3.80
2018-09-18T01:51:13.719Z,3.62
2018-09-18T01:51:48.931Z,5.80
2018-09-18T01:52:24.062Z,4.10
2018-09-18T01:52:59.229Z,3.65
2018-09-18T01:53:34.415Z,3.60
2018-09-18T01:54:10.635Z,4.03
2018-09-18T01:54:46.137Z,4.12
2018-09-18T01:55:21.399Z,5.62
2018-09-18T01:55:56.698Z,4.53
2018-09-18T01:56:31.918Z,5.37
2018-09-18T01:57:07.730Z,4.75
2018-09-18T01:57:42.915Z,4.28
2018-09-18T01:58:18.286Z,4.85
2018-09-18T01:58:53.876Z,4.62
2018-09-18T01:59:29.164Z,3.92
2018-09-18T02:00:04.463Z,3.50
2018-09-18T02:00:39.629Z,6.47
2018-09-18T02:01:14.814Z,5.45
2018-09-18T02:01:50.187Z,4.00
2018-09-18T02:02:25.480Z,3.75
2018-09-18T02:03:00.634Z,7.08
2018-09-18T02:03:36.123Z,5.42
2018-09-18T02:04:11.348Z,4.25
2018-09-18T02:04:47.038Z,5.03
2018-09-18T02:05:22.447Z,3.87
2018-09-18T02:05:57.745Z,5.45
2018-09-18T02:06:33.002Z,4.92
2018-09-18T02:07:08.170Z,5.85
2018-09-18T02:07:43.320Z,4.20
2018-09-18T02:08:18.895Z,4.28
2018-09-18T02:08:54.188Z,4.50
2018-09-18T02:09:29.361Z,4.20
2018-09-18T02:10:05.543Z,3.77
2018-09-18T02:10:40.743Z,5.92
2018-09-18T02:11:16.025Z,5.00
2018-09-18T02:11:51.585Z,3.67
2018-09-18T02:12:26.886Z,3.45
2018-09-18T02:13:02.085Z,3.87
2018-09-18T02:13:37.290Z,5.03
2018-09-18T02:14:12.473Z,5.28
2018-09-18T02:14:47.830Z,4.62
2018-09-18T02:15:23.097Z,6.00
2018-09-18T02:15:58.303Z,4.85
2018-09-18T02:16:33.455Z,4.50
2018-09-18T02:17:08.620Z,9.40
2018-09-18T02:17:43.818Z,8.75
2018-09-18T02:18:19.215Z,7.17
2018-09-18T02:18:54.574Z,3.98
2018-09-18T02:19:29.789Z,5.37
2018-09-18T02:20:05.515Z,6.45
2018-09-18T02:20:40.672Z,5.08
2018-09-18T02:21:16.162Z,5.22
2018-09-18T02:21:51.657Z,4.67
2018-09-18T02:22:26.950Z,4.92
2018-09-18T02:23:02.098Z,5.65
2018-09-18T02:23:37.253Z,5.03
2018-09-18T02:24:12.417Z,5.55
2018-09-18T02:24:47.857Z,8.00
2018-09-18T02:25:23.233Z,4.67
2018-09-18T02:25:58.730Z,3.80
2018-09-18T02:26:33.932Z,3.80
2018-09-18T02:27:09.144Z,4.05
2018-09-18T02:27:44.322Z,5.78
2018-09-18T02:28:19.900Z,5.80
2018-09-18T02:28:55.462Z,4.12
2018-09-18T02:29:30.705Z,3.65
2018-09-18T02:30:06.325Z,8.35
2018-09-18T02:30:42.018Z,4.75
2018-09-18T02:31:17.296Z,4.42
2018-09-18T02:31:52.721Z,5.67
2018-09-18T02:32:27.938Z,4.87
2018-09-18T02:33:03.120Z,4.70
2018-09-18T02:33:38.334Z,6.83
2018-09-18T02:34:13.012Z,4.35
2018-09-18T02:34:48.643Z,4.58
2018-09-18T02:35:24.065Z,4.92
2018-09-18T02:35:59.291Z,3.80
2018-09-18T02:36:34.846Z,4.08
2018-09-18T02:37:10.079Z,4.20
2018-09-18T02:37:45.281Z,4.30
2018-09-18T02:38:20.716Z,5.40
2018-09-18T02:38:56.054Z,6.72
2018-09-18T02:39:31.257Z,4.55
2018-09-18T02:40:06.903Z,4.17
2018-09-18T02:40:42.171Z,4.42
2018-09-18T02:41:17.582Z,4.97
2018-09-18T02:41:53.217Z,5.28
2018-09-18T02:42:28.474Z,4.53
2018-09-18T02:43:03.654Z,5.05
2018-09-18T02:43:38.817Z,4.30
2018-09-18T02:44:14.086Z,4.53
2018-09-18T02:44:49.602Z,4.12
2018-09-18T02:45:24.791Z,4.20
2018-09-18T02:46:00.005Z,4.45
2018-09-18T02:46:35.228Z,3.58
2018-09-18T02:47:10.474Z,5.85
2018-09-18T02:47:45.765Z,4.10
2018-09-18T02:48:21.139Z,5.58
2018-09-18T02:48:56.383Z,5.75
2018-09-18T02:49:31.562Z,5.58
2018-09-18T02:50:06.737Z,5.37
2018-09-18T02:50:41.986Z,4.10
2018-09-18T02:51:17.901Z,3.75
2018-09-18T02:51:53.262Z,5.50
2018-09-18T02:52:28.427Z,5.20
2018-09-18T02:53:03.593Z,4.42
2018-09-18T02:53:38.770Z,4.08
2018-09-18T02:54:13.969Z,6.62
2018-09-18T02:54:49.399Z,4.70
2018-09-18T02:55:24.656Z,4.33
2018-09-18T02:55:59.975Z,4.47
2018-09-18T02:56:35.140Z,5.35
2018-09-18T02:57:10.286Z,5.10
2018-09-18T02:57:46.018Z,3.87
2018-09-18T02:58:21.287Z,4.83
2018-09-18T02:58:56.599Z,8.75
2018-09-18T02:59:31.771Z,7.05
2018-09-18T03:00:07.099Z,4.65
2018-09-18T03:00:42.291Z,5.22
2018-09-18T03:01:17.884Z,7.45
2018-09-18T03:01:53.410Z,6.87
2018-09-18T03:02:28.624Z,6.30
2018-09-18T03:03:03.811Z,5.50
2018-09-18T03:03:39.004Z,4.30
2018-09-18T03:04:14.224Z,7.55
2018-09-18T03:04:49.533Z,4.08
2018-09-18T03:05:24.435Z,4.45
2018-09-18T03:05:59.669Z,6.22
2018-09-18T03:06:34.924Z,5.65
2018-09-18T03:07:10.101Z,5.03
2018-09-18T03:07:45.380Z,6.37
2018-09-18T03:08:20.716Z,4.47
2018-09-18T03:08:56.023Z,4.80
2018-09-18T03:09:30.719Z,4.87
2018-09-18T03:10:06.374Z,7.60
2018-09-18T03:10:41.556Z,4.37
2018-09-18T03:11:17.240Z,4.10
2018-09-18T03:11:52.758Z,4.75
2018-09-18T03:12:28.137Z,6.20
2018-09-18T03:13:03.367Z,5.55
2018-09-18T03:13:38.537Z,4.53
2018-09-18T03:14:13.750Z,4.45
2018-09-18T03:14:49.057Z,4.67
2018-09-18T03:15:24.317Z,5.10
2018-09-18T03:15:59.515Z,5.05
2018-09-18T03:16:34.702Z,5.05
2018-09-18T03:17:09.943Z,5.08
2018-09-18T03:17:45.152Z,5.90
2018-09-18T03:18:20.479Z,4.58
2018-09-18T03:18:55.899Z,4.20
2018-09-18T03:19:31.092Z,6.12
2018-09-18T03:20:06.992Z,4.70
2018-09-18T03:20:42.203Z,4.83
2018-09-18T03:21:17.626Z,4.53
2018-09-18T03:21:53.005Z,5.53
2018-09-18T03:22:28.348Z,5.35
2018-09-18T03:23:03.553Z,5.72
2018-09-18T03:23:38.742Z,4.65
2018-09-18T03:24:13.911Z,5.87
2018-09-18T03:24:49.474Z,4.85
2018-09-18T03:25:24.766Z,4.85
2018-09-18T03:25:59.915Z,5.03
2018-09-18T03:26:35.087Z,7.92
2018-09-18T03:27:10.271Z,10.35
2018-09-18T03:27:45.773Z,7.10
2018-09-18T03:28:21.197Z,8.63
2018-09-18T03:28:56.494Z,6.67
2018-09-18T03:29:31.674Z,8.45
2018-09-18T03:30:07.228Z,6.17
2018-09-18T03:30:42.413Z,7.45
2018-09-18T03:31:17.911Z,9.78
2018-09-18T03:31:53.334Z,7.12
2018-09-18T03:32:28.668Z,9.35
2018-09-18T03:33:04.160Z,5.10
2018-09-18T03:33:39.418Z,5.72
2018-09-18T03:34:15.178Z,5.60
2018-09-18T03:34:51.026Z,6.33
2018-09-18T03:35:26.248Z,6.17
2018-09-18T03:36:01.435Z,6.10
2018-09-18T03:36:36.582Z,9.75
2018-09-18T03:37:12.458Z,4.97
2018-09-18T03:37:47.913Z,5.03
2018-09-18T03:38:23.545Z,5.83
2018-09-18T03:38:58.818Z,4.97
2018-09-18T03:39:33.974Z,7.20
2018-09-18T03:40:09.142Z,5.67
2018-09-18T03:40:44.375Z,8.40
2018-09-18T03:41:19.871Z,6.90
2018-09-18T03:41:55.407Z,5.15
2018-09-18T03:42:30.588Z,6.20
2018-09-18T03:43:05.778Z,5.83
2018-09-18T03:43:40.957Z,6.37
2018-09-18T03:44:16.292Z,5.17
2018-09-18T03:44:51.970Z,8.75
2018-09-18T03:45:27.572Z,7.37
2018-09-18T03:46:02.775Z,5.30
2018-09-18T03:46:37.942Z,6.75
2018-09-18T03:47:13.117Z,5.60
2018-09-18T03:47:48.653Z,5.75
2018-09-18T03:48:24.219Z,5.72
2018-09-18T03:48:59.447Z,5.12
2018-09-18T03:49:34.635Z,5.87
2018-09-18T03:50:09.470Z,9.28
2018-09-18T03:50:44.964Z,5.78
2018-09-18T03:51:20.369Z,5.58
2018-09-18T03:51:55.586Z,8.20
2018-09-18T03:52:30.738Z,9.58
2018-09-18T03:53:05.933Z,5.80
2018-09-18T03:53:41.111Z,6.72
2018-09-18T03:54:16.332Z,6.85
2018-09-18T03:54:51.780Z,7.78
2018-09-18T03:55:27.107Z,6.78
2018-09-18T03:56:02.331Z,6.53
2018-09-18T03:56:37.478Z,6.22
2018-09-18T03:57:12.669Z,6.75
2018-09-18T03:57:47.935Z,6.92
2018-09-18T03:58:23.282Z,5.97
2018-09-18T03:58:58.867Z,7.50
2018-09-18T03:59:34.066Z,7.17
2018-09-18T04:00:09.633Z,8.23
2018-09-18T04:00:44.810Z,8.23
2018-09-18T04:01:20.233Z,7.12
2018-09-18T04:01:55.507Z,6.62
2018-09-18T04:02:30.682Z,9.15
2018-09-18T04:03:06.020Z,7.28
2018-09-18T04:03:41.185Z,6.62
2018-09-18T04:04:16.610Z,9.38
2018-09-18T04:04:51.903Z,9.78
2018-09-18T04:05:27.466Z,6.42
2018-09-18T04:06:02.652Z,6.55
2018-09-18T04:06:37.861Z,6.30
2018-09-18T04:07:13.043Z,10.35
2018-09-18T04:07:48.455Z,12.98
2018-09-18T04:08:23.845Z,7.50
2018-09-18T04:08:59.034Z,6.92
2018-09-18T04:09:34.302Z,6.90
2018-09-18T04:10:09.489Z,9.68
2018-09-18T04:10:44.691Z,10.88
2018-09-18T04:11:20.558Z,10.20
2018-09-18T04:11:56.166Z,7.87
2018-09-18T04:12:31.367Z,7.45
2018-09-18T04:13:06.981Z,7.72
2018-09-18T04:13:42.142Z,7.00
2018-09-18T04:14:17.783Z,6.83
2018-09-18T04:14:53.453Z,7.22
2018-09-18T04:15:28.842Z,7.83
2018-09-18T04:16:04.110Z,9.35
2018-09-18T04:16:39.446Z,6.92
2018-09-18T04:17:14.676Z,8.33
2018-09-18T04:17:50.215Z,6.80
2018-09-18T04:18:26.877Z,9.13
2018-09-18T04:19:02.161Z,8.28
2018-09-18T04:19:37.302Z,7.62
2018-09-18T04:20:12.546Z,7.90
2018-09-18T04:20:48.126Z,6.60
2018-09-18T04:21:27.769Z,6.78
2018-09-18T04:22:02.903Z,7.92
2018-09-18T04:22:38.051Z,6.80
2018-09-18T04:23:13.235Z,6.87
2018-09-18T04:23:48.644Z,10.18
2018-09-18T04:24:24.452Z,8.90
2018-09-18T04:24:59.879Z,10.18
2018-09-18T04:25:35.162Z,8.30
2018-09-18T04:26:10.330Z,9.55
2018-09-18T04:26:45.078Z,7.28
2018-09-18T04:27:20.555Z,9.30
2018-09-18T04:27:55.955Z,8.30
2018-09-18T04:28:31.190Z,6.65
2018-09-18T04:29:06.863Z,9.30
2018-09-18T04:29:42.015Z,9.80
2018-09-18T04:30:17.706Z,10.08
2018-09-18T04:30:53.112Z,10.20
2018-09-18T04:31:28.530Z,7.40
2018-09-18T04:32:03.699Z,10.32
2018-09-18T04:32:38.866Z,7.47
2018-09-18T04:33:14.051Z,11.83
2018-09-18T04:33:49.562Z,10.15
2018-09-18T04:34:24.984Z,13.40
2018-09-18T04:35:00.392Z,12.80
2018-09-18T04:35:35.823Z,9.88
2018-09-18T04:36:11.090Z,10.53
2018-09-18T04:36:46.065Z,10.53
2018-09-18T04:37:21.921Z,11.15
2018-09-18T04:37:56.697Z,7.12
2018-09-18T04:38:31.885Z,9.18
2018-09-18T04:39:11.876Z,11.90
2018-09-18T04:39:47.759Z,12.13
2018-09-18T04:40:23.426Z,12.40
2018-09-18T04:40:59.026Z,9.25
2018-09-18T04:41:34.340Z,10.72
2018-09-18T04:42:09.908Z,7.80
2018-09-18T04:42:45.376Z,11.15
2018-09-18T04:43:20.853Z,11.18
2018-09-18T04:43:56.300Z,9.83
2018-09-18T04:44:31.583Z,11.78
2018-09-18T04:45:06.824Z,8.25
2018-09-18T04:45:41.991Z,12.00
2018-09-18T04:46:17.399Z,8.75
2018-09-18T04:46:52.756Z,8.88
2018-09-18T04:47:28.184Z,7.53
2018-09-18T04:48:03.366Z,12.45
2018-09-18T04:48:38.561Z,15.63
2018-09-18T04:49:13.736Z,12.20
2018-09-18T04:49:49.712Z,10.98
2018-09-18T04:50:25.139Z,15.45
2018-09-18T04:51:00.627Z,9.50
2018-09-18T04:51:35.828Z,11.88
2018-09-18T04:52:11.078Z,8.35
2018-09-18T04:52:46.264Z,8.50
2018-09-18T04:53:21.649Z,10.40
2018-09-18T04:53:56.959Z,10.58
2018-09-18T04:54:32.142Z,9.68
2018-09-18T04:55:07.745Z,11.00
2018-09-18T04:55:42.910Z,11.75
2018-09-18T04:56:18.154Z,10.55
2018-09-18T04:56:53.471Z,6.87
2018-09-18T04:57:28.729Z,12.43
2018-09-18T04:58:03.910Z,8.08
2018-09-18T04:58:39.111Z,7.12
2018-09-18T04:59:14.286Z,7.70
2018-09-18T04:59:49.703Z,9.15
2018-09-18T05:00:25.166Z,9.00
2018-09-18T05:00:59.969Z,8.83
2018-09-18T05:01:35.429Z,11.48
2018-09-18T05:02:10.711Z,6.78
2018-09-18T05:02:46.256Z,7.35
2018-09-18T05:03:21.842Z,6.58
2018-09-18T05:03:57.070Z,7.60
2018-09-18T05:04:32.290Z,13.05
2018-09-18T05:05:07.674Z,7.12
2018-09-18T05:05:42.874Z,7.92
2018-09-18T05:06:18.686Z,6.40
2018-09-18T05:06:53.995Z,8.25
2018-09-18T05:07:29.209Z,7.22
2018-09-18T05:08:04.480Z,5.62
2018-09-18T05:08:39.846Z,7.40
2018-09-18T05:09:15.049Z,6.25
2018-09-18T05:09:50.455Z,9.08
2018-09-18T05:10:26.022Z,8.33
2018-09-18T05:11:01.220Z,7.55
2018-09-18T05:11:36.401Z,6.80
2018-09-18T05:12:11.630Z,6.50
2018-09-18T05:12:46.895Z,6.72
2018-09-18T05:13:22.275Z,7.55
2018-09-18T05:13:57.598Z,8.83
2018-09-18T05:14:32.952Z,6.78
2018-09-18T05:15:08.130Z,6.20
2018-09-18T05:15:43.320Z,8.33
2018-09-18T05:16:18.875Z,10.45
2018-09-18T05:16:54.225Z,8.08
2018-09-18T05:17:29.493Z,9.65
2018-09-18T05:18:05.068Z,8.43
2018-09-18T05:18:40.364Z,6.65
2018-09-18T05:19:15.631Z,7.65
2018-09-18T05:19:50.864Z,9.75
2018-09-18T05:20:26.538Z,8.43
2018-09-18T05:21:01.736Z,8.85
2018-09-18T05:21:36.916Z,9.00
2018-09-18T05:22:12.149Z,6.50
2018-09-18T05:22:47.589Z,10.43
2018-09-18T05:23:22.955Z,7.47
2018-09-18T05:23:58.264Z,10.15
2018-09-18T05:24:33.438Z,8.98
2018-09-18T05:25:08.744Z,9.38
2018-09-18T05:25:43.908Z,8.70
2018-09-18T05:26:19.344Z,11.25
2018-09-18T05:26:55.658Z,5.45
2018-09-18T05:27:30.897Z,8.73
2018-09-18T05:28:06.206Z,8.05
2018-09-18T05:28:41.432Z,8.33
2018-09-18T05:29:16.775Z,6.62
2018-09-18T05:29:52.115Z,8.23
2018-09-18T05:30:27.333Z,7.45
2018-09-18T05:31:02.498Z,8.25
2018-09-18T05:31:37.816Z,11.08
2018-09-18T05:32:12.985Z,8.08
2018-09-18T05:32:48.833Z,6.37
2018-09-18T05:33:24.138Z,8.40
2018-09-18T05:33:59.426Z,9.18
2018-09-18T05:34:34.637Z,11.33
2018-09-18T05:35:09.837Z,14.38
2018-09-18T05:35:45.010Z,11.20
2018-09-18T05:36:20.290Z,11.22
2018-09-18T05:36:55.625Z,10.58
2018-09-18T05:37:31.091Z,7.62
2018-09-18T05:38:06.663Z,11.12
2018-09-18T05:38:41.891Z,9.28
2018-09-18T05:39:17.119Z,7.22
2018-09-18T05:39:52.669Z,7.10
2018-09-18T05:40:28.316Z,8.15
2018-09-18T05:41:03.684Z,7.22
2018-09-18T05:41:38.905Z,9.68
2018-09-18T05:42:14.447Z,10.15
2018-09-18T05:42:49.942Z,12.30
2018-09-18T05:43:25.374Z,8.95
2018-09-18T05:44:00.682Z,12.65
2018-09-18T05:44:35.888Z,8.38
2018-09-18T05:45:11.063Z,7.65
2018-09-18T05:45:46.303Z,9.80
2018-09-18T05:46:21.628Z,7.40
2018-09-18T05:46:57.106Z,10.93
2018-09-18T05:47:32.252Z,6.60
2018-09-18T05:48:07.536Z,9.33
2018-09-18T05:48:42.869Z,8.43
2018-09-18T05:49:18.513Z,11.20
2018-09-18T05:49:54.053Z,12.98
2018-09-18T05:50:29.397Z,8.25
2018-09-18T05:51:04.846Z,12.15
2018-09-18T05:51:40.051Z,13.50
2018-09-18T05:52:15.340Z,13.22
2018-09-18T05:52:50.611Z,10.58
2018-09-18T05:53:25.869Z,14.35
2018-09-18T05:54:01.133Z,14.43
2018-09-18T05:54:36.345Z,18.82
2018-09-18T05:55:11.557Z,13.85
2018-09-18T05:55:47.068Z,12.25
2018-09-18T05:56:22.347Z,13.08
2018-09-18T05:56:57.616Z,12.25
2018-09-18T05:57:32.809Z,14.03
2018-09-18T05:58:08.230Z,13.80
2018-09-18T05:58:43.440Z,15.93
2018-09-18T05:59:19.278Z,19.15
2018-09-18T05:59:54.546Z,9.50
2018-09-18T06:00:29.810Z,8.43
2018-09-18T06:01:05.019Z,9.80
2018-09-18T06:01:40.211Z,11.83
2018-09-18T06:02:15.550Z,9.28
2018-09-18T06:02:51.603Z,11.83
2018-09-18T06:03:26.947Z,12.90
2018-09-18T06:04:02.112Z,7.90
2018-09-18T06:04:37.338Z,11.48
2018-09-18T06:05:12.884Z,8.38
2018-09-18T06:05:48.186Z,8.28
2018-09-18T06:06:23.722Z,10.35
2018-09-18T06:06:59.005Z,8.95
2018-09-18T06:07:34.596Z,10.78
2018-09-18T06:08:09.776Z,6.60
2018-09-18T06:08:44.989Z,7.65
2018-09-18T06:09:20.426Z,7.17
2018-09-18T06:09:55.879Z,12.05
2018-09-18T06:10:31.122Z,11.12
2018-09-18T06:11:06.320Z,9.03
2018-09-18T06:11:41.474Z,7.72
2018-09-18T06:12:17.674Z,8.98
2018-09-18T06:12:53.007Z,10.88
2018-09-18T06:13:28.378Z,8.40
2018-09-18T06:14:03.611Z,9.55
2018-09-18T06:14:38.774Z,7.50
2018-09-18T06:15:13.983Z,8.80
2018-09-18T06:15:49.785Z,10.32
2018-09-18T06:16:25.055Z,9.95
2018-09-18T06:17:00.295Z,7.72
2018-09-18T06:17:35.446Z,10.30
2018-09-18T06:18:10.672Z,7.15
2018-09-18T06:18:45.948Z,8.78
2018-09-18T06:19:21.550Z,8.18
2018-09-18T06:19:56.780Z,9.33
2018-09-18T06:20:31.956Z,8.90
2018-09-18T06:21:07.334Z,8.53
2018-09-18T06:21:42.542Z,8.28
2018-09-18T06:22:17.949Z,9.63
2018-09-18T06:22:53.457Z,10.50
2018-09-18T06:23:28.786Z,10.23
2018-09-18T06:24:04.339Z,9.93
2018-09-18T06:24:39.544Z,13.95
2018-09-18T06:25:14.862Z,11.43
2018-09-18T06:25:50.254Z,9.80
2018-09-18T06:26:25.607Z,11.08
2018-09-18T06:27:00.848Z,13.05
2018-09-18T06:27:36.006Z,8.68
2018-09-18T06:28:11.173Z,13.18
2018-09-18T06:28:46.388Z,12.30
2018-09-18T06:29:21.866Z,15.75
2018-09-18T06:29:57.122Z,15.00
2018-09-18T06:30:32.349Z,13.30
2018-09-18T06:31:08.008Z,13.58
2018-09-18T06:31:43.186Z,12.65
2018-09-18T06:32:18.802Z,12.88
2018-09-18T06:32:54.726Z,20.80
2018-09-18T06:33:29.953Z,19.67
2018-09-18T06:34:05.186Z,17.05
2018-09-18T06:34:40.395Z,15.65
2018-09-18T06:35:16.290Z,19.85
2018-09-18T06:35:52.092Z,14.18
2018-09-18T06:36:27.742Z,21.50
2018-09-18T06:37:02.511Z,17.15
2018-09-18T06:37:37.866Z,18.17
2018-09-18T06:38:13.135Z,25.25
2018-09-18T06:38:48.563Z,15.65
2018-09-18T06:39:24.087Z,12.00
2018-09-18T06:39:59.433Z,21.23
2018-09-18T06:40:34.646Z,14.00
2018-09-18T06:41:09.850Z,15.85
2018-09-18T06:41:45.057Z,17.32
2018-09-18T06:42:20.704Z,14.98
2018-09-18T06:42:56.150Z,21.12
2018-09-18T06:43:31.461Z,18.23
2018-09-18T06:44:06.674Z,15.32
2018-09-18T06:44:41.879Z,13.18
2018-09-18T06:45:17.426Z,14.35
2018-09-18T06:45:52.746Z,17.85
2018-09-18T06:46:28.179Z,15.65
2018-09-18T06:47:03.362Z,26.85
2018-09-18T06:47:38.550Z,15.03
2018-09-18T06:48:13.921Z,11.40
2018-09-18T06:48:49.447Z,15.95
2018-09-18T06:49:24.960Z,15.45
2018-09-18T06:50:00.126Z,20.25
2018-09-18T06:50:35.338Z,15.00
2018-09-18T06:51:10.567Z,15.38
2018-09-18T06:51:45.295Z,18.23
2018-09-18T06:52:20.537Z,18.73
2018-09-18T06:52:55.798Z,18.65
2018-09-18T06:53:31.162Z,13.85
2018-09-18T06:54:06.390Z,14.07
2018-09-18T06:54:41.564Z,12.50
2018-09-18T06:55:16.845Z,12.45
2018-09-18T06:55:52.476Z,15.20
2018-09-18T06:56:28.054Z,14.40
2018-09-18T06:57:03.240Z,13.43
2018-09-18T06:57:38.491Z,13.83
2018-09-18T06:58:13.708Z,17.27
2018-09-18T06:58:49.587Z,16.12
2018-09-18T06:59:24.943Z,13.88
2018-09-18T07:00:00.140Z,12.53
2018-09-18T07:00:35.338Z,11.60
2018-09-18T07:01:10.533Z,12.70
2018-09-18T07:01:45.730Z,11.48
2018-09-18T07:02:21.301Z,12.73
2018-09-18T07:02:56.636Z,20.60
2018-09-18T07:03:31.833Z,16.02
2018-09-18T07:04:07.613Z,14.40
2018-09-18T07:04:42.818Z,15.08
2018-09-18T07:05:18.288Z,16.12
2018-09-18T07:05:54.354Z,14.05
2018-09-18T07:06:29.579Z,12.58
2018-09-18T07:07:04.973Z,17.25
2018-09-18T07:07:40.167Z,17.65
2018-09-18T07:08:15.838Z,16.12
2018-09-18T07:08:51.343Z,18.85
2018-09-18T07:09:26.895Z,15.40
2018-09-18T07:10:02.130Z,15.13
2018-09-18T07:10:37.324Z,15.43
2018-09-18T07:11:12.519Z,14.13
2018-09-18T07:11:48.012Z,16.48
2018-09-18T07:12:23.295Z,14.13
2018-09-18T07:12:59.577Z,14.18
2018-09-18T07:13:35.102Z,18.42
2018-09-18T07:14:10.316Z,12.68
2018-09-18T07:14:45.535Z,16.77
2018-09-18T07:15:20.931Z,19.15
2018-09-18T07:15:56.383Z,13.98
2018-09-18T07:16:31.121Z,12.28
2018-09-18T07:17:06.847Z,15.25
2018-09-18T07:17:42.190Z,14.53
2018-09-18T07:18:17.599Z,17.00
2018-09-18T07:18:53.087Z,16.10
2018-09-18T07:19:28.389Z,14.13
2018-09-18T07:20:03.986Z,12.93
2018-09-18T07:20:39.205Z,14.23
2018-09-18T07:21:14.434Z,16.93
2018-09-18T07:21:50.284Z,15.20
2018-09-18T07:22:25.716Z,11.85
2018-09-18T07:23:00.943Z,12.85
2018-09-18T07:23:36.454Z,10.68
2018-09-18T07:24:11.648Z,14.73
2018-09-18T07:24:46.957Z,14.40
2018-09-18T07:25:22.390Z,10.25
2018-09-18T07:25:58.160Z,16.23
2018-09-18T07:26:33.350Z,11.25
2018-09-18T07:27:08.562Z,13.30
2018-09-18T07:27:43.767Z,16.35
2018-09-18T07:28:19.146Z,13.55
2018-09-18T07:28:55.185Z,12.88
2018-09-18T07:29:30.525Z,11.68
2018-09-18T07:30:06.716Z,14.33
2018-09-18T07:30:42.054Z,14.05
2018-09-18T07:31:17.344Z,15.35
2018-09-18T07:31:52.848Z,14.33
2018-09-18T07:32:28.144Z,12.63
2018-09-18T07:33:03.391Z,11.53
2018-09-18T07:33:38.714Z,16.35
2018-09-18T07:34:14.118Z,16.90
2018-09-18T07:34:49.610Z,13.22
2018-09-18T07:35:25.338Z,15.32
2018-09-18T07:36:00.576Z,13.05
2018-09-18T07:36:35.960Z,15.43
2018-09-18T07:37:11.158Z,13.90
2018-09-18T07:37:46.406Z,12.20
2018-09-18T07:38:21.988Z,13.60
2018-09-18T07:38:57.365Z,14.38
2018-09-18T07:39:32.572Z,12.80
2018-09-18T07:40:07.787Z,10.55
2018-09-18T07:40:42.998Z,11.20
2018-09-18T07:41:18.505Z,15.20
2018-09-18T07:41:53.890Z,11.18
2018-09-18T07:42:29.129Z,12.05
2018-09-18T07:43:04.363Z,13.05
2018-09-18T07:43:39.531Z,17.00
2018-09-18T07:44:14.733Z,13.22
2018-09-18T07:44:50.064Z,13.18
2018-09-18T07:45:25.553Z,14.15
2018-09-18T07:46:00.723Z,14.40
2018-09-18T07:46:35.904Z,11.63